sensor_id;sensor_type;location;lat;lon;timestamp;P1;durP1;ratioP1;P2;durP2;ratioP2
8476;SDS011;4275;42.854;23.222;2024-01-15T00:01:00;26.90;;;25.57;;
8476;SDS011;4275;42.854;23.222;2024-01-15T00:03:27;26.67;;;25.37;;
8476;SDS011;4275;42.854;23.222;2024-01-15T00:05:54;25.47;;;24.27;;
8476;SDS011;4275;42.854;23.222;2024-01-15T00:08:20;26.70;;;25.40;;
8476;SDS011;4275;42.854;23.222;2024-01-15T00:10:47;26.70;;;25.40;;
8476;SDS011;4275;42.854;23.222;2024-01-15T00:13:14;23.40;;;22.30;;
8476;SDS011;4275;42.854;23.222;2024-01-15T00:15:42;24.53;;;23.33;;
8476;SDS011;4275;42.854;23.222;2024-01-15T00:18:09;24.20;;;23.00;;
8476;SDS011;4275;42.854;23.222;2024-01-15T00:20:36;24.50;;;23.30;;
8476;SDS011;4275;42.854;23.222;2024-01-15T00:23:03;26.47;;;25.17;;
8476;SDS011;4275;42.854;23.222;2024-01-15T00:25:30;25.70;;;24.40;;
8476;SDS011;4275;42.854;23.222;2024-01-15T00:27:57;27.70;;;26.30;;
8476;SDS011;4275;42.854;23.222;2024-01-15T00:30:24;27.03;;;25.63;;
8476;SDS011;4275;42.854;23.222;2024-01-15T00:32:53;23.80;;;22.60;;
8476;SDS011;4275;42.854;23.222;2024-01-15T00:35:20;24.63;;;23.43;;
8476;SDS011;4275;42.854;23.222;2024-01-15T00:37:47;26.20;;;24.90;;
8476;SDS011;4275;42.854;23.222;2024-01-15T00:40:14;25.53;;;24.33;;
8476;SDS011;4275;42.854;23.222;2024-01-15T00:42:41;25.20;;;24.00;;
8476;SDS011;4275;42.854;23.222;2024-01-15T00:45:08;28.20;;;26.77;;
8476;SDS011;4275;42.854;23.222;2024-01-15T00:47:36;26.50;;;25.10;;
8476;SDS011;4275;42.854;23.222;2024-01-15T00:50:05;29.73;;;28.13;;
8476;SDS011;4275;42.854;23.222;2024-01-15T00:52:33;30.27;;;28.77;;
8476;SDS011;4275;42.854;23.222;2024-01-15T00:55:00;26.43;;;25.13;;
8476;SDS011;4275;42.854;23.222;2024-01-15T00:57:27;25.67;;;24.37;;
8476;SDS011;4275;42.854;23.222;2024-01-15T00:59:54;29.63;;;28.13;;
8476;SDS011;4275;42.854;23.222;2024-01-15T01:02:21;29.17;;;27.73;;
8476;SDS011;4275;42.854;23.222;2024-01-15T01:04:48;26.77;;;25.47;;
8476;SDS011;4275;42.854;23.222;2024-01-15T01:07:16;26.57;;;25.27;;
8476;SDS011;4275;42.854;23.222;2024-01-15T01:09:44;28.93;;;27.43;;
8476;SDS011;4275;42.854;23.222;2024-01-15T01:12:13;27.80;;;26.40;;
8476;SDS011;4275;42.854;23.222;2024-01-15T01:14:40;27.73;;;26.33;;
8476;SDS011;4275;42.854;23.222;2024-01-15T01:17:07;26.47;;;25.17;;
8476;SDS011;4275;42.854;23.222;2024-01-15T01:19:33;22.13;;;21.13;;
8476;SDS011;4275;42.854;23.222;2024-01-15T01:22:00;22.97;;;21.87;;
8476;SDS011;4275;42.854;23.222;2024-01-15T01:24:29;27.03;;;25.67;;
8476;SDS011;4275;42.854;23.222;2024-01-15T01:26:56;26.30;;;25.10;;
8476;SDS011;4275;42.854;23.222;2024-01-15T01:29:23;25.77;;;24.47;;
8476;SDS011;4275;42.854;23.222;2024-01-15T01:31:51;22.80;;;21.70;;
8476;SDS011;4275;42.854;23.222;2024-01-15T01:34:18;24.03;;;22.63;;
8476;SDS011;4275;42.854;23.222;2024-01-15T01:36:45;28.10;;;26.60;;
8476;SDS011;4275;42.854;23.222;2024-01-15T01:39:12;29.00;;;27.47;;
8476;SDS011;4275;42.854;23.222;2024-01-15T01:41:40;25.47;;;24.17;;
8476;SDS011;4275;42.854;23.222;2024-01-15T01:44:07;24.37;;;23.17;;
8476;SDS011;4275;42.854;23.222;2024-01-15T01:46:34;27.27;;;25.87;;
8476;SDS011;4275;42.854;23.222;2024-01-15T01:49:04;27.77;;;26.37;;
8476;SDS011;4275;42.854;23.222;2024-01-15T01:51:33;29.43;;;27.93;;
8476;SDS011;4275;42.854;23.222;2024-01-15T01:54:01;25.93;;;24.63;;
8476;SDS011;4275;42.854;23.222;2024-01-15T01:56:28;26.10;;;24.70;;
8476;SDS011;4275;42.854;23.222;2024-01-15T01:58:57;29.73;;;28.13;;
8476;SDS011;4275;42.854;23.222;2024-01-15T02:01:24;28.97;;;27.47;;
8476;SDS011;4275;42.854;23.222;2024-01-15T02:03:51;26.10;;;24.80;;
8476;SDS011;4275;42.854;23.222;2024-01-15T02:06:21;27.83;;;26.43;;
8476;SDS011;4275;42.854;23.222;2024-01-15T02:08:49;27.10;;;25.70;;
8476;SDS011;4275;42.854;23.222;2024-01-15T02:11:17;28.87;;;27.37;;
8476;SDS011;4275;42.854;23.222;2024-01-15T02:13:44;25.93;;;24.63;;
8476;SDS011;4275;42.854;23.222;2024-01-15T02:16:12;28.40;;;26.90;;
8476;SDS011;4275;42.854;23.222;2024-01-15T02:18:42;28.53;;;27.03;;
8476;SDS011;4275;42.854;23.222;2024-01-15T02:21:10;27.17;;;25.67;;
8476;SDS011;4275;42.854;23.222;2024-01-15T02:23:38;27.87;;;26.27;;
8476;SDS011;4275;42.854;23.222;2024-01-15T02:26:05;29.13;;;27.43;;
8476;SDS011;4275;42.854;23.222;2024-01-15T02:28:34;29.23;;;27.63;;
8476;SDS011;4275;42.854;23.222;2024-01-15T02:31:01;25.10;;;23.70;;
8476;SDS011;4275;42.854;23.222;2024-01-15T02:33:28;24.70;;;23.30;;
8476;SDS011;4275;42.854;23.222;2024-01-15T02:35:55;29.87;;;28.30;;
8476;SDS011;4275;42.854;23.222;2024-01-15T02:38:21;29.27;;;27.77;;
8476;SDS011;4275;42.854;23.222;2024-01-15T02:40:50;28.00;;;26.50;;
8476;SDS011;4275;42.854;23.222;2024-01-15T02:43:17;23.80;;;22.60;;
8476;SDS011;4275;42.854;23.222;2024-01-15T02:45:44;23.70;;;22.60;;
8476;SDS011;4275;42.854;23.222;2024-01-15T02:48:12;21.90;;;20.90;;
8476;SDS011;4275;42.854;23.222;2024-01-15T02:50:39;21.93;;;20.93;;
8476;SDS011;4275;42.854;23.222;2024-01-15T02:53:06;15.40;;;14.80;;
8476;SDS011;4275;42.854;23.222;2024-01-15T02:55:33;19.33;;;18.53;;
8476;SDS011;4275;42.854;23.222;2024-01-15T02:58:01;15.10;;;14.60;;
8476;SDS011;4275;42.854;23.222;2024-01-15T03:00:28;14.53;;;14.03;;
8476;SDS011;4275;42.854;23.222;2024-01-15T03:02:55;14.60;;;14.10;;
8476;SDS011;4275;42.854;23.222;2024-01-15T03:05:22;16.00;;;15.40;;
8476;SDS011;4275;42.854;23.222;2024-01-15T03:07:49;14.53;;;14.03;;
8476;SDS011;4275;42.854;23.222;2024-01-15T03:10:16;13.80;;;13.30;;
8476;SDS011;4275;42.854;23.222;2024-01-15T03:12:43;17.73;;;16.93;;
8476;SDS011;4275;42.854;23.222;2024-01-15T03:15:11;18.10;;;17.40;;
8476;SDS011;4275;42.854;23.222;2024-01-15T03:17:39;19.47;;;18.77;;
8476;SDS011;4275;42.854;23.222;2024-01-15T03:20:08;18.50;;;17.80;;
8476;SDS011;4275;42.854;23.222;2024-01-15T03:22:35;16.53;;;15.93;;
8476;SDS011;4275;42.854;23.222;2024-01-15T03:25:03;18.37;;;17.57;;
8476;SDS011;4275;42.854;23.222;2024-01-15T03:27:30;19.00;;;18.20;;
8476;SDS011;4275;42.854;23.222;2024-01-15T03:29:57;18.03;;;17.23;;
8476;SDS011;4275;42.854;23.222;2024-01-15T03:32:25;17.47;;;16.77;;
8476;SDS011;4275;42.854;23.222;2024-01-15T03:34:52;17.30;;;16.70;;
8476;SDS011;4275;42.854;23.222;2024-01-15T03:37:19;16.83;;;16.23;;
8476;SDS011;4275;42.854;23.222;2024-01-15T03:39:46;16.90;;;16.30;;
8476;SDS011;4275;42.854;23.222;2024-01-15T03:42:13;15.07;;;14.57;;
8476;SDS011;4275;42.854;23.222;2024-01-15T03:44:41;16.37;;;15.77;;
8476;SDS011;4275;42.854;23.222;2024-01-15T03:47:08;16.50;;;15.90;;
8476;SDS011;4275;42.854;23.222;2024-01-15T03:49:36;17.57;;;16.97;;
8476;SDS011;4275;42.854;23.222;2024-01-15T03:52:04;16.77;;;16.17;;
8476;SDS011;4275;42.854;23.222;2024-01-15T03:54:31;17.43;;;16.73;;
8476;SDS011;4275;42.854;23.222;2024-01-15T03:57:01;16.90;;;16.20;;
8476;SDS011;4275;42.854;23.222;2024-01-15T03:59:31;17.30;;;16.70;;
8476;SDS011;4275;42.854;23.222;2024-01-15T04:01:58;19.13;;;18.33;;
8476;SDS011;4275;42.854;23.222;2024-01-15T04:04:25;18.40;;;17.70;;
8476;SDS011;4275;42.854;23.222;2024-01-15T04:06:53;18.70;;;18.00;;
8476;SDS011;4275;42.854;23.222;2024-01-15T04:09:20;18.83;;;18.03;;
8476;SDS011;4275;42.854;23.222;2024-01-15T04:11:47;19.33;;;18.53;;
8476;SDS011;4275;42.854;23.222;2024-01-15T04:14:15;19.10;;;18.30;;
8476;SDS011;4275;42.854;23.222;2024-01-15T04:16:42;19.60;;;18.80;;
8476;SDS011;4275;42.854;23.222;2024-01-15T04:19:09;19.87;;;19.07;;
8476;SDS011;4275;42.854;23.222;2024-01-15T04:21:36;16.30;;;15.70;;
8476;SDS011;4275;42.854;23.222;2024-01-15T04:24:04;16.87;;;16.27;;
8476;SDS011;4275;42.854;23.222;2024-01-15T04:26:32;17.30;;;16.70;;
8476;SDS011;4275;42.854;23.222;2024-01-15T04:28:59;16.37;;;15.77;;
8476;SDS011;4275;42.854;23.222;2024-01-15T04:31:25;17.60;;;17.00;;
8476;SDS011;4275;42.854;23.222;2024-01-15T04:33:53;16.80;;;16.20;;
8476;SDS011;4275;42.854;23.222;2024-01-15T04:36:20;19.10;;;18.40;;
8476;SDS011;4275;42.854;23.222;2024-01-15T04:38:46;18.23;;;17.53;;
8476;SDS011;4275;42.854;23.222;2024-01-15T04:41:15;19.60;;;18.80;;
8476;SDS011;4275;42.854;23.222;2024-01-15T04:43:43;21.13;;;20.23;;
8476;SDS011;4275;42.854;23.222;2024-01-15T04:46:10;19.23;;;18.43;;
8476;SDS011;4275;42.854;23.222;2024-01-15T04:48:37;21.20;;;20.30;;
8476;SDS011;4275;42.854;23.222;2024-01-15T04:51:04;22.53;;;21.63;;
8476;SDS011;4275;42.854;23.222;2024-01-15T04:53:32;21.60;;;20.70;;
8476;SDS011;4275;42.854;23.222;2024-01-15T04:56:00;20.30;;;19.50;;
8476;SDS011;4275;42.854;23.222;2024-01-15T04:58:28;18.77;;;17.97;;
8476;SDS011;4275;42.854;23.222;2024-01-15T05:00:55;19.73;;;18.93;;
8476;SDS011;4275;42.854;23.222;2024-01-15T05:03:22;20.03;;;19.13;;
8476;SDS011;4275;42.854;23.222;2024-01-15T05:05:49;17.80;;;17.10;;
8476;SDS011;4275;42.854;23.222;2024-01-15T05:08:16;19.47;;;18.60;;
8476;SDS011;4275;42.854;23.222;2024-01-15T05:10:43;16.90;;;16.20;;
8476;SDS011;4275;42.854;23.222;2024-01-15T05:13:11;17.73;;;17.03;;
8476;SDS011;4275;42.854;23.222;2024-01-15T05:15:39;19.33;;;18.53;;
8476;SDS011;4275;42.854;23.222;2024-01-15T05:18:06;14.70;;;14.20;;
8476;SDS011;4275;42.854;23.222;2024-01-15T05:20:33;17.70;;;17.00;;
8476;SDS011;4275;42.854;23.222;2024-01-15T05:23:00;17.67;;;16.97;;
8476;SDS011;4275;42.854;23.222;2024-01-15T05:25:26;19.87;;;18.97;;
8476;SDS011;4275;42.854;23.222;2024-01-15T05:27:53;18.37;;;17.57;;
8476;SDS011;4275;42.854;23.222;2024-01-15T05:30:20;18.63;;;17.83;;
8476;SDS011;4275;42.854;23.222;2024-01-15T05:32:49;18.07;;;17.37;;
8476;SDS011;4275;42.854;23.222;2024-01-15T05:35:15;18.83;;;18.03;;
8476;SDS011;4275;42.854;23.222;2024-01-15T05:37:43;18.77;;;17.97;;
8476;SDS011;4275;42.854;23.222;2024-01-15T05:40:11;21.37;;;20.47;;
8476;SDS011;4275;42.854;23.222;2024-01-15T05:42:39;20.17;;;19.27;;
8476;SDS011;4275;42.854;23.222;2024-01-15T05:45:06;19.23;;;18.43;;
8476;SDS011;4275;42.854;23.222;2024-01-15T05:47:34;20.17;;;19.27;;
8476;SDS011;4275;42.854;23.222;2024-01-15T05:50:02;19.90;;;19.00;;
8476;SDS011;4275;42.854;23.222;2024-01-15T05:52:32;22.03;;;21.03;;
8476;SDS011;4275;42.854;23.222;2024-01-15T05:54:59;20.03;;;19.13;;
8476;SDS011;4275;42.854;23.222;2024-01-15T05:57:26;20.80;;;19.80;;
8476;SDS011;4275;42.854;23.222;2024-01-15T05:59:53;20.33;;;19.43;;
8476;SDS011;4275;42.854;23.222;2024-01-15T06:02:20;19.50;;;18.60;;
8476;SDS011;4275;42.854;23.222;2024-01-15T06:04:47;17.57;;;16.87;;
8476;SDS011;4275;42.854;23.222;2024-01-15T06:07:15;19.40;;;18.60;;
8476;SDS011;4275;42.854;23.222;2024-01-15T06:09:42;20.23;;;19.37;;
8476;SDS011;4275;42.854;23.222;2024-01-15T06:12:10;21.33;;;20.33;;
8476;SDS011;4275;42.854;23.222;2024-01-15T06:14:37;20.87;;;19.87;;
8476;SDS011;4275;42.854;23.222;2024-01-15T06:17:04;21.23;;;20.23;;
8476;SDS011;4275;42.854;23.222;2024-01-15T06:19:31;20.23;;;19.33;;
8476;SDS011;4275;42.854;23.222;2024-01-15T06:21:58;20.50;;;19.60;;
8476;SDS011;4275;42.854;23.222;2024-01-15T06:24:26;20.33;;;19.43;;
8476;SDS011;4275;42.854;23.222;2024-01-15T06:26:53;18.30;;;17.50;;
8476;SDS011;4275;42.854;23.222;2024-01-15T06:29:20;19.20;;;18.30;;
8476;SDS011;4275;42.854;23.222;2024-01-15T06:31:47;19.07;;;18.17;;
8476;SDS011;4275;42.854;23.222;2024-01-15T06:34:14;20.97;;;19.97;;
8476;SDS011;4275;42.854;23.222;2024-01-15T06:36:41;21.97;;;20.90;;
8476;SDS011;4275;42.854;23.222;2024-01-15T06:39:09;19.40;;;18.50;;
8476;SDS011;4275;42.854;23.222;2024-01-15T06:41:37;22.10;;;20.80;;
8476;SDS011;4275;42.854;23.222;2024-01-15T06:44:08;19.87;;;18.87;;
8476;SDS011;4275;42.854;23.222;2024-01-15T06:46:36;26.17;;;24.67;;
8476;SDS011;4275;42.854;23.222;2024-01-15T06:49:03;26.90;;;25.43;;
8476;SDS011;4275;42.854;23.222;2024-01-15T06:51:30;23.00;;;21.80;;
8476;SDS011;4275;42.854;23.222;2024-01-15T06:53:57;21.00;;;19.90;;
8476;SDS011;4275;42.854;23.222;2024-01-15T06:56:23;21.70;;;20.60;;
8476;SDS011;4275;42.854;23.222;2024-01-15T06:58:52;25.10;;;23.80;;
8476;SDS011;4275;42.854;23.222;2024-01-15T07:01:19;28.47;;;26.97;;
8476;SDS011;4275;42.854;23.222;2024-01-15T07:03:46;23.90;;;22.70;;
8476;SDS011;4275;42.854;23.222;2024-01-15T07:06:13;22.87;;;21.67;;
8476;SDS011;4275;42.854;23.222;2024-01-15T07:08:40;26.37;;;25.07;;
8476;SDS011;4275;42.854;23.222;2024-01-15T07:11:07;23.40;;;22.20;;
8476;SDS011;4275;42.854;23.222;2024-01-15T07:13:35;23.40;;;22.20;;
8476;SDS011;4275;42.854;23.222;2024-01-15T07:16:04;21.80;;;20.70;;
8476;SDS011;4275;42.854;23.222;2024-01-15T07:18:31;21.60;;;20.50;;
8476;SDS011;4275;42.854;23.222;2024-01-15T07:20:58;21.97;;;20.87;;
8476;SDS011;4275;42.854;23.222;2024-01-15T07:23:26;22.23;;;21.13;;
8476;SDS011;4275;42.854;23.222;2024-01-15T07:25:53;22.57;;;21.47;;
8476;SDS011;4275;42.854;23.222;2024-01-15T07:28:20;23.03;;;21.93;;
8476;SDS011;4275;42.854;23.222;2024-01-15T07:30:47;23.67;;;22.47;;
8476;SDS011;4275;42.854;23.222;2024-01-15T07:33:15;23.10;;;22.00;;
8476;SDS011;4275;42.854;23.222;2024-01-15T07:35:42;20.57;;;19.67;;
8476;SDS011;4275;42.854;23.222;2024-01-15T07:38:09;20.73;;;19.83;;
8476;SDS011;4275;42.854;23.222;2024-01-15T07:40:37;18.23;;;17.43;;
8476;SDS011;4275;42.854;23.222;2024-01-15T07:43:04;19.30;;;18.40;;
8476;SDS011;4275;42.854;23.222;2024-01-15T07:45:30;19.13;;;18.33;;
8476;SDS011;4275;42.854;23.222;2024-01-15T07:47:57;20.57;;;19.67;;
8476;SDS011;4275;42.854;23.222;2024-01-15T07:50:26;21.10;;;20.13;;
8476;SDS011;4275;42.854;23.222;2024-01-15T07:52:53;21.77;;;20.70;;
8476;SDS011;4275;42.854;23.222;2024-01-15T07:55:20;23.63;;;22.43;;
8476;SDS011;4275;42.854;23.222;2024-01-15T07:57:47;25.20;;;24.00;;
8476;SDS011;4275;42.854;23.222;2024-01-15T08:00:14;29.13;;;27.63;;
8476;SDS011;4275;42.854;23.222;2024-01-15T08:02:41;30.37;;;28.77;;
8476;SDS011;4275;42.854;23.222;2024-01-15T08:05:08;26.57;;;25.17;;
8476;SDS011;4275;42.854;23.222;2024-01-15T08:07:37;24.43;;;23.13;;
8476;SDS011;4275;42.854;23.222;2024-01-15T08:10:04;28.63;;;27.13;;
8476;SDS011;4275;42.854;23.222;2024-01-15T08:12:31;30.27;;;28.70;;
8476;SDS011;4275;42.854;23.222;2024-01-15T08:14:58;26.23;;;24.83;;
8476;SDS011;4275;42.854;23.222;2024-01-15T08:17:25;25.97;;;24.57;;
8476;SDS011;4275;42.854;23.222;2024-01-15T08:19:53;30.97;;;29.27;;
8476;SDS011;4275;42.854;23.222;2024-01-15T08:22:21;27.27;;;25.77;;
8476;SDS011;4275;42.854;23.222;2024-01-15T08:24:50;26.10;;;24.60;;
8476;SDS011;4275;42.854;23.222;2024-01-15T08:27:17;26.27;;;24.87;;
8476;SDS011;4275;42.854;23.222;2024-01-15T08:29:45;29.57;;;27.97;;
8476;SDS011;4275;42.854;23.222;2024-01-15T08:32:12;28.23;;;26.73;;
8476;SDS011;4275;42.854;23.222;2024-01-15T08:34:40;28.40;;;26.80;;
8476;SDS011;4275;42.854;23.222;2024-01-15T08:37:07;27.80;;;26.30;;
8476;SDS011;4275;42.854;23.222;2024-01-15T08:39:34;28.80;;;27.20;;
8476;SDS011;4275;42.854;23.222;2024-01-15T08:42:07;29.47;;;27.87;;
8476;SDS011;4275;42.854;23.222;2024-01-15T08:44:34;29.67;;;27.87;;
8476;SDS011;4275;42.854;23.222;2024-01-15T08:47:01;23.47;;;22.07;;
8476;SDS011;4275;42.854;23.222;2024-01-15T08:49:29;22.33;;;21.13;;
8476;SDS011;4275;42.854;23.222;2024-01-15T08:51:56;21.93;;;20.73;;
8476;SDS011;4275;42.854;23.222;2024-01-15T08:54:23;22.63;;;21.33;;
8476;SDS011;4275;42.854;23.222;2024-01-15T08:56:50;22.70;;;21.40;;
8476;SDS011;4275;42.854;23.222;2024-01-15T08:59:19;20.50;;;19.30;;
8476;SDS011;4275;42.854;23.222;2024-01-15T09:01:49;22.80;;;21.60;;
8476;SDS011;4275;42.854;23.222;2024-01-15T09:04:16;21.13;;;19.93;;
8476;SDS011;4275;42.854;23.222;2024-01-15T09:06:44;23.07;;;21.73;;
8476;SDS011;4275;42.854;23.222;2024-01-15T09:09:12;22.23;;;20.83;;
8476;SDS011;4275;42.854;23.222;2024-01-15T09:11:40;23.37;;;22.00;;
8476;SDS011;4275;42.854;23.222;2024-01-15T09:14:07;22.63;;;21.23;;
8476;SDS011;4275;42.854;23.222;2024-01-15T09:16:35;30.87;;;28.97;;
8476;SDS011;4275;42.854;23.222;2024-01-15T09:19:03;22.90;;;21.50;;
8476;SDS011;4275;42.854;23.222;2024-01-15T09:21:29;20.03;;;18.63;;
8476;SDS011;4275;42.854;23.222;2024-01-15T09:23:56;21.73;;;20.33;;
8476;SDS011;4275;42.854;23.222;2024-01-15T09:26:23;19.30;;;18.00;;
8476;SDS011;4275;42.854;23.222;2024-01-15T09:28:51;22.60;;;21.00;;
8476;SDS011;4275;42.854;23.222;2024-01-15T09:31:18;21.53;;;20.13;;
8476;SDS011;4275;42.854;23.222;2024-01-15T09:33:47;22.23;;;20.73;;
8476;SDS011;4275;42.854;23.222;2024-01-15T09:36:14;22.20;;;20.70;;
8476;SDS011;4275;42.854;23.222;2024-01-15T09:38:41;24.67;;;23.10;;
8476;SDS011;4275;42.854;23.222;2024-01-15T09:41:08;24.73;;;23.13;;
8476;SDS011;4275;42.854;23.222;2024-01-15T09:43:35;26.60;;;25.00;;
8476;SDS011;4275;42.854;23.222;2024-01-15T09:46:03;22.53;;;21.13;;
8476;SDS011;4275;42.854;23.222;2024-01-15T09:48:30;20.97;;;19.57;;
8476;SDS011;4275;42.854;23.222;2024-01-15T09:51:00;23.13;;;21.63;;
8476;SDS011;4275;42.854;23.222;2024-01-15T09:53:28;24.00;;;22.40;;
8476;SDS011;4275;42.854;23.222;2024-01-15T09:55:55;24.90;;;23.20;;
8476;SDS011;4275;42.854;23.222;2024-01-15T09:58:23;21.17;;;19.57;;
8476;SDS011;4275;42.854;23.222;2024-01-15T10:00:50;27.20;;;25.30;;
8476;SDS011;4275;42.854;23.222;2024-01-15T10:06:10;23.10;;;21.10;;
8476;SDS011;4275;42.854;23.222;2024-01-15T10:08:42;22.70;;;20.80;;
8476;SDS011;4275;42.854;23.222;2024-01-15T10:11:13;25.43;;;23.33;;
8476;SDS011;4275;42.854;23.222;2024-01-15T10:13:41;27.90;;;25.60;;
8476;SDS011;4275;42.854;23.222;2024-01-15T10:16:10;29.17;;;26.77;;
8476;SDS011;4275;42.854;23.222;2024-01-15T10:18:37;24.90;;;22.60;;
8476;SDS011;4275;42.854;23.222;2024-01-15T10:21:06;27.50;;;25.10;;
8476;SDS011;4275;42.854;23.222;2024-01-15T10:23:34;26.63;;;24.23;;
8476;SDS011;4275;42.854;23.222;2024-01-15T10:26:02;27.10;;;24.70;;
8476;SDS011;4275;42.854;23.222;2024-01-15T10:28:29;24.30;;;21.97;;
8476;SDS011;4275;42.854;23.222;2024-01-15T10:30:58;28.10;;;25.60;;
8476;SDS011;4275;42.854;23.222;2024-01-15T10:33:25;26.50;;;24.10;;
8476;SDS011;4275;42.854;23.222;2024-01-15T10:35:53;27.23;;;24.73;;
8476;SDS011;4275;42.854;23.222;2024-01-15T10:38:20;23.97;;;21.67;;
8476;SDS011;4275;42.854;23.222;2024-01-15T10:40:49;28.20;;;25.70;;
8476;SDS011;4275;42.854;23.222;2024-01-15T10:43:18;27.07;;;24.57;;
8476;SDS011;4275;42.854;23.222;2024-01-15T10:45:45;28.70;;;26.10;;
8476;SDS011;4275;42.854;23.222;2024-01-15T10:48:12;28.73;;;26.23;;
8476;SDS011;4275;42.854;23.222;2024-01-15T10:50:40;27.87;;;25.47;;
8476;SDS011;4275;42.854;23.222;2024-01-15T10:53:07;25.60;;;23.20;;
8476;SDS011;4275;42.854;23.222;2024-01-15T10:55:35;24.07;;;21.77;;
8476;SDS011;4275;42.854;23.222;2024-01-15T10:58:06;26.30;;;23.90;;
8476;SDS011;4275;42.854;23.222;2024-01-15T11:00:33;27.40;;;25.00;;
8476;SDS011;4275;42.854;23.222;2024-01-15T11:03:02;23.80;;;21.60;;
8476;SDS011;4275;42.854;23.222;2024-01-15T11:05:32;24.10;;;21.77;;
8476;SDS011;4275;42.854;23.222;2024-01-15T11:08:00;27.23;;;24.73;;
8476;SDS011;4275;42.854;23.222;2024-01-15T11:10:40;29.50;;;26.90;;
8476;SDS011;4275;42.854;23.222;2024-01-15T11:13:10;28.40;;;25.90;;
8476;SDS011;4275;42.854;23.222;2024-01-15T11:15:59;25.37;;;22.97;;
8476;SDS011;4275;42.854;23.222;2024-01-15T11:18:28;25.20;;;22.80;;
8476;SDS011;4275;42.854;23.222;2024-01-15T11:23:49;34.13;;;31.23;;
8476;SDS011;4275;42.854;23.222;2024-01-15T11:26:30;33.50;;;30.60;;
8476;SDS011;4275;42.854;23.222;2024-01-15T11:29:00;31.00;;;28.30;;
8476;SDS011;4275;42.854;23.222;2024-01-15T11:31:29;31.85;;;29.05;;
8476;SDS011;4275;42.854;23.222;2024-01-15T11:34:18;25.97;;;23.47;;
8476;SDS011;4275;42.854;23.222;2024-01-15T11:37:00;26.70;;;24.20;;
8476;SDS011;4275;42.854;23.222;2024-01-15T11:39:41;28.40;;;25.80;;
8476;SDS011;4275;42.854;23.222;2024-01-15T11:42:09;34.73;;;31.83;;
8476;SDS011;4275;42.854;23.222;2024-01-15T11:44:38;24.77;;;22.37;;
8476;SDS011;4275;42.854;23.222;2024-01-15T11:47:05;27.63;;;25.03;;
8476;SDS011;4275;42.854;23.222;2024-01-15T11:49:41;27.47;;;24.87;;
8476;SDS011;4275;42.854;23.222;2024-01-15T11:52:25;26.30;;;23.90;;
8476;SDS011;4275;42.854;23.222;2024-01-15T11:54:55;26.73;;;24.43;;
8476;SDS011;4275;42.854;23.222;2024-01-15T11:57:28;27.77;;;25.37;;
8476;SDS011;4275;42.854;23.222;2024-01-15T11:59:59;28.80;;;26.50;;
8476;SDS011;4275;42.854;23.222;2024-01-15T12:02:26;29.10;;;26.80;;
8476;SDS011;4275;42.854;23.222;2024-01-15T12:04:55;26.47;;;24.17;;
8476;SDS011;4275;42.854;23.222;2024-01-15T12:07:22;27.70;;;25.40;;
8476;SDS011;4275;42.854;23.222;2024-01-15T12:09:49;28.30;;;25.90;;
8476;SDS011;4275;42.854;23.222;2024-01-15T12:12:17;31.30;;;28.80;;
8476;SDS011;4275;42.854;23.222;2024-01-15T12:14:51;28.87;;;26.47;;
8476;SDS011;4275;42.854;23.222;2024-01-15T12:17:18;29.03;;;26.63;;
8476;SDS011;4275;42.854;23.222;2024-01-15T12:19:45;25.57;;;23.27;;
8476;SDS011;4275;42.854;23.222;2024-01-15T12:22:14;27.30;;;25.00;;
8476;SDS011;4275;42.854;23.222;2024-01-15T12:24:41;25.10;;;22.90;;
8476;SDS011;4275;42.854;23.222;2024-01-15T12:27:08;25.30;;;23.00;;
8476;SDS011;4275;42.854;23.222;2024-01-15T12:29:35;25.37;;;23.07;;
8476;SDS011;4275;42.854;23.222;2024-01-15T12:32:02;26.17;;;23.87;;
8476;SDS011;4275;42.854;23.222;2024-01-15T12:34:32;26.87;;;24.57;;
8476;SDS011;4275;42.854;23.222;2024-01-15T12:36:59;26.70;;;24.30;;
8476;SDS011;4275;42.854;23.222;2024-01-15T12:39:27;25.83;;;23.43;;
8476;SDS011;4275;42.854;23.222;2024-01-15T12:41:54;25.17;;;22.87;;
8476;SDS011;4275;42.854;23.222;2024-01-15T12:44:21;25.73;;;23.43;;
8476;SDS011;4275;42.854;23.222;2024-01-15T12:46:49;27.90;;;25.50;;
8476;SDS011;4275;42.854;23.222;2024-01-15T12:49:17;26.60;;;24.20;;
8476;SDS011;4275;42.854;23.222;2024-01-15T12:51:51;28.57;;;26.07;;
8476;SDS011;4275;42.854;23.222;2024-01-15T12:54:19;28.00;;;25.50;;
8476;SDS011;4275;42.854;23.222;2024-01-15T12:56:47;31.33;;;28.73;;
8476;SDS011;4275;42.854;23.222;2024-01-15T12:59:17;31.47;;;28.77;;
8476;SDS011;4275;42.854;23.222;2024-01-15T13:01:44;30.90;;;28.20;;
8476;SDS011;4275;42.854;23.222;2024-01-15T13:04:20;26.97;;;24.47;;
8476;SDS011;4275;42.854;23.222;2024-01-15T13:06:49;30.90;;;28.20;;
8476;SDS011;4275;42.854;23.222;2024-01-15T13:09:16;29.50;;;26.90;;
8476;SDS011;4275;42.854;23.222;2024-01-15T13:11:43;32.53;;;29.73;;
8476;SDS011;4275;42.854;23.222;2024-01-15T13:14:11;25.23;;;22.77;;
8476;SDS011;4275;42.854;23.222;2024-01-15T13:16:39;32.20;;;29.50;;
8476;SDS011;4275;42.854;23.222;2024-01-15T13:19:06;29.87;;;27.17;;
8476;SDS011;4275;42.854;23.222;2024-01-15T13:21:36;31.43;;;28.67;;
8476;SDS011;4275;42.854;23.222;2024-01-15T13:24:03;30.53;;;27.93;;
8476;SDS011;4275;42.854;23.222;2024-01-15T13:26:31;26.30;;;23.80;;
8476;SDS011;4275;42.854;23.222;2024-01-15T13:28:58;31.33;;;28.63;;
8476;SDS011;4275;42.854;23.222;2024-01-15T13:31:27;29.67;;;27.23;;
8476;SDS011;4275;42.854;23.222;2024-01-15T13:33:54;30.73;;;28.03;;
8476;SDS011;4275;42.854;23.222;2024-01-15T13:36:21;25.60;;;23.20;;
8476;SDS011;4275;42.854;23.222;2024-01-15T13:38:48;31.60;;;28.80;;
8476;SDS011;4275;42.854;23.222;2024-01-15T13:41:16;33.03;;;30.20;;
8476;SDS011;4275;42.854;23.222;2024-01-15T13:43:46;62.10;;;47.27;;
8476;SDS011;4275;42.854;23.222;2024-01-15T13:46:14;32.70;;;29.80;;
8476;SDS011;4275;42.854;23.222;2024-01-15T13:48:43;33.13;;;30.23;;
8476;SDS011;4275;42.854;23.222;2024-01-15T13:51:10;32.80;;;29.90;;
8476;SDS011;4275;42.854;23.222;2024-01-15T13:53:37;32.27;;;29.43;;
8476;SDS011;4275;42.854;23.222;2024-01-15T13:56:05;33.30;;;30.40;;
8476;SDS011;4275;42.854;23.222;2024-01-15T13:58:33;32.60;;;29.70;;
8476;SDS011;4275;42.854;23.222;2024-01-15T14:01:02;32.70;;;29.80;;
8476;SDS011;4275;42.854;23.222;2024-01-15T14:03:31;34.10;;;31.20;;
8476;SDS011;4275;42.854;23.222;2024-01-15T14:06:00;34.50;;;31.50;;
8476;SDS011;4275;42.854;23.222;2024-01-15T14:08:29;32.73;;;29.83;;
8476;SDS011;4275;42.854;23.222;2024-01-15T14:10:56;25.57;;;23.27;;
8476;SDS011;4275;42.854;23.222;2024-01-15T14:13:23;25.53;;;23.23;;
8476;SDS011;4275;42.854;23.222;2024-01-15T14:15:50;29.97;;;27.37;;
8476;SDS011;4275;42.854;23.222;2024-01-15T14:18:17;27.40;;;24.80;;
8476;SDS011;4275;42.854;23.222;2024-01-15T14:20:45;25.40;;;23.00;;
8476;SDS011;4275;42.854;23.222;2024-01-15T14:23:13;30.00;;;27.40;;
8476;SDS011;4275;42.854;23.222;2024-01-15T14:25:40;30.13;;;27.53;;
8476;SDS011;4275;42.854;23.222;2024-01-15T14:28:07;25.50;;;23.10;;
8476;SDS011;4275;42.854;23.222;2024-01-15T14:30:34;25.07;;;22.67;;
8476;SDS011;4275;42.854;23.222;2024-01-15T14:33:01;29.80;;;27.20;;
8476;SDS011;4275;42.854;23.222;2024-01-15T14:35:28;33.93;;;31.13;;
8476;SDS011;4275;42.854;23.222;2024-01-15T14:37:55;25.10;;;22.70;;
8476;SDS011;4275;42.854;23.222;2024-01-15T14:40:25;30.70;;;28.10;;
8476;SDS011;4275;42.854;23.222;2024-01-15T14:42:52;32.50;;;29.90;;